Trito Navigator — PCOU — position and weather

sailwx.info

Track history (hours):
 
Tides and Currents Weather Stations Pressure Air Temp Water Temp Dewpoint Dewpoint Depression Visibility Wind Speed Wind Dir Waves Ship Positions

Trito Navigator

Last reported at 2017-Nov-19 13:20 UTC. Time now 2017-Nov-22 13:08 UTC.
Position N 56°02' E 016°44'.

Length 117 m; draft 7.3 m.

Type: Cargo ship. MMSI: 245237000.

Date/timePositionNaut miles runAvg speedWind from/ knotsBaromVisibWave heightAir tempDewpointWater temp
2017-Nov-19 13:20N 56°02' E 016°44'411.6
2017-Nov-19 13:00N 56°01' E 016°38'611.8
2017-Nov-19 12:30N 55°58' E 016°29'611.8
2017-Nov-19 12:00N 55°55' E 016°19'611.8
2017-Nov-19 11:30N 55°53' E 016°10'611.9
2017-Nov-19 11:00N 55°50' E 016°00'612.0
2017-Nov-19 10:30N 55°46' E 015°51'611.9
2017-Nov-19 10:00N 55°43' E 015°42'612.1
2017-Nov-19 09:30N 55°40' E 015°33'612.2
2017-Nov-19 09:00N 55°37' E 015°24'612.2
2017-Nov-19 08:30N 55°34' E 015°14'612.2
2017-Nov-19 08:00N 55°31' E 015°05'612.2
2017-Nov-19 07:30N 55°28' E 014°55'612.2
2017-Nov-19 07:01N 55°26' E 014°46'612.0
2017-Nov-19 06:31N 55°22' E 014°37'611.9
2017-Nov-19 06:01N 55°18' E 014°30'611.5
2017-Nov-19 05:31N 55°13' E 014°24'611.3
2017-Nov-19 05:01N 55°11' E 014°15'612.0
2017-Nov-19 04:29N 55°10' E 014°03'812.0
2017-Nov-19 03:50N 55°11' E 013°50'2512.2
2017-Nov-19 01:49N 55°14' E 013°07'412.2
2017-Nov-19 01:30N 55°14' E 013°01'612.4
2017-Nov-19 01:00N 55°15' E 012°50'612.3
2017-Nov-19 00:31N 55°18' E 012°40'510.7
2017-Nov-19 00:01N 55°23' E 012°39'611.4
2017-Nov-18 23:30N 55°29' E 012°41'511.1
2017-Nov-18 23:01N 55°34' E 012°42'611.3
2017-Nov-18 22:31N 55°40' E 012°41'612.0
2017-Nov-18 22:01N 55°46' E 012°41'611.3
2017-Nov-18 21:30N 55°51' E 012°40'612.2
2017-Nov-18 21:01N 55°57' E 012°38'611.6
2017-Nov-18 20:31N 56°03' E 012°38'713.6
2017-Nov-18 20:00N 56°08' E 012°29'612.9
2017-Nov-18 19:30N 56°11' E 012°20'612.3
2017-Nov-18 19:00N 56°15' E 012°10'4512.4
2017-Nov-18 15:20N 56°58' E 011°44'412.4
2017-Nov-18 15:00N 57°02' E 011°42'612.7
2017-Nov-18 14:30N 57°08' E 011°38'712.7
2017-Nov-18 13:59N 57°14' E 011°33'612.6
2017-Nov-18 13:30N 57°19' E 011°29'612.4
2017-Nov-18 13:00N 57°25' E 011°24'612.1
2017-Nov-18 12:29N 57°30' E 011°17'612.8
2017-Nov-18 12:00N 57°32' E 011°06'613.0
2017-Nov-18 11:30N 57°35' E 010°55'612.8
2017-Nov-18 11:00N 57°38' E 010°45'511.0
2017-Nov-18 10:30N 57°42' E 010°38'0 0.1
2017-Nov-18 09:06N 57°42' E 010°38'0 0.1
2017-Nov-18 09:00N 57°42' E 010°38'0 0.0
2017-Nov-18 08:29N 57°42' E 010°38'0 0.2
2017-Nov-18 08:00N 57°42' E 010°37'4 7.6
2017-Nov-18 07:30N 57°44' E 010°44'4 9.0
2017-Nov-18 07:00N 57°47' E 010°37'713.7
2017-Nov-18 06:30N 57°46' E 010°24'34011.0
2017-Nov-16 23:38N 53°11' E 004°32'110.5
2017-Nov-16 23:30N 53°10' E 004°31'510.3
2017-Nov-16 23:00N 53°05' E 004°27'510.2
2017-Nov-16 22:30N 53°01' E 004°22'510.1
2017-Nov-16 22:00N 52°57' E 004°19'510.0
2017-Nov-16 21:30N 52°52' E 004°16'510.0
2017-Nov-16 20:59N 52°48' E 004°10'510.0
2017-Nov-16 20:26N 52°44' E 004°04'510.1
2017-Nov-16 19:59N 52°40' E 003°59'610.1
2017-Nov-16 19:24N 52°36' E 003°52'7612.1
2017-Nov-16 13:06N 51°40' E 002°29'113.5
2017-Nov-16 13:00N 51°39' E 002°27'713.9
2017-Nov-16 12:30N 51°34' E 002°20'713.7
2017-Nov-16 11:59N 51°28' E 002°13'713.9
2017-Nov-16 11:30N 51°22' E 002°09'713.8
2017-Nov-16 11:01N 51°16' E 002°05'714.0
2017-Nov-16 10:31N 51°11' E 001°56'714.5
2017-Nov-16 10:01N 51°08' E 001°46'714.5
2017-Nov-16 09:30N 51°03' E 001°38'714.1
2017-Nov-16 09:00N 50°57' E 001°30'713.3
2017-Nov-16 08:30N 50°51' E 001°26'612.5
2017-Nov-16 08:00N 50°45' E 001°23'5811.8
2017-Nov-16 03:06N 50°20' E 000°01'411.1
2017-Nov-16 02:43N 50°19' W 000°05'210.9
2017-Nov-16 02:30N 50°18' W 000°08'510.7
2017-Nov-16 02:00N 50°16' W 000°16'1710.1
2017-Nov-16 00:20N 50°12' W 000°42'4 9.8
2017-Nov-15 23:59N 50°11' W 000°47'5 9.8
2017-Nov-15 23:30N 50°10' W 000°54'5 9.9
2017-Nov-15 23:00N 50°08' W 001°01'510.3
2017-Nov-15 22:30N 50°07' W 001°09'510.9
2017-Nov-15 22:00N 50°06' W 001°17'611.5
2017-Nov-15 21:30N 50°04' W 001°26'612.2
2017-Nov-15 21:00N 50°02' W 001°35'713.0
2017-Nov-15 20:30N 50°01' W 001°45'713.6
2017-Nov-15 20:00N 49°59' W 001°55'714.0
2017-Nov-15 19:30N 49°57' W 002°05'5213.8
2017-Nov-15 15:45N 49°38' W 003°20'7712.7
2017-Nov-15 09:42N 48°60' W 005°03'211.3
2017-Nov-15 09:29N 48°59' W 005°06'611.3
2017-Nov-15 08:59N 48°56' W 005°14'610.9
2017-Nov-15 08:29N 48°53' W 005°21'610.9
2017-Nov-15 07:58N 48°50' W 005°28'510.7
2017-Nov-15 07:27N 48°47' W 005°35'610.5
2017-Nov-15 06:51N 48°41' W 005°40'1111.0
2017-Nov-15 05:51N 48°32' W 005°48'510.9
2017-Nov-15 05:25N 48°28' W 005°52'511.3
2017-Nov-15 04:56N 48°23' W 005°55'811.3
2017-Nov-15 04:16N 48°16' W 006°00'911.6
2017-Nov-15 03:27N 48°08' W 006°07'611.8
2017-Nov-15 02:56N 48°02' W 006°11'912.1
2017-Nov-15 02:11N 47°54' W 006°16'412.5
2017-Nov-15 01:52N 47°50' W 006°19'612.7
2017-Nov-15 01:25N 47°46' W 006°24'612.6
2017-Nov-15 00:56N 47°40' W 006°28'612.8
2017-Nov-15 00:30N 47°35' W 006°31'612.9
2017-Nov-15 00:00N 47°29' W 006°35'912.3
2017-Nov-14 23:17N 47°22' W 006°42'411.9
2017-Nov-14 22:56N 47°18' W 006°45'492 9.9
2017-Nov-12 20:59N 39°25' W 009°51'5 9.4
2017-Nov-12 20:30N 39°20' W 009°51'5 9.5
2017-Nov-12 20:01N 39°15' W 009°51'5 9.8
2017-Nov-12 19:30N 39°10' W 009°51'510.0
2017-Nov-12 19:00N 39°05' W 009°51'5 9.9
2017-Nov-12 18:30N 39°00' W 009°51'5 9.9
2017-Nov-12 18:00N 38°55' W 009°51'5 9.8
2017-Nov-12 17:30N 38°51' W 009°51'5 9.6
2017-Nov-12 17:00N 38°46' W 009°51'5 9.5
2017-Nov-12 16:30N 38°41' W 009°51'5 9.2
2017-Nov-12 16:00N 38°37' W 009°49'5 9.0
2017-Nov-12 15:30N 38°32' W 009°48'4 8.9
2017-Nov-12 15:00N 38°28' W 009°47'5 9.1
2017-Nov-12 14:30N 38°23' W 009°45'5 9.1
2017-Nov-12 14:00N 38°19' W 009°44'5 9.0
2017-Nov-12 13:30N 38°15' W 009°43'4 8.9
2017-Nov-12 13:00N 38°10' W 009°41'5 9.5
2017-Nov-12 12:30N 38°06' W 009°40'5 9.4
2017-Nov-12 12:00N 38°01' W 009°39'5 9.5
2017-Nov-12 11:29N 37°56' W 009°37'5 9.8
2017-Nov-12 11:00N 37°52' W 009°36'710.0
2017-Nov-12 10:18N 37°45' W 009°34'410.0
2017-Nov-12 09:56N 37°41' W 009°33'610.3
2017-Nov-12 09:19N 37°35' W 009°31'62 9.6
2017-Nov-12 02:50N 36°41' W 008°53'411.2
2017-Nov-12 02:29N 36°39' W 008°48'511.2
2017-Nov-12 02:00N 36°38' W 008°42'611.5
2017-Nov-12 01:30N 36°36' W 008°35'1011.4
2017-Nov-12 00:37N 36°33' W 008°23'511.4
2017-Nov-12 00:11N 36°31' W 008°17'711.5
2017-Nov-11 23:36N 36°29' W 008°10'110.7
2017-Nov-11 23:29N 36°29' W 008°08'611.3
2017-Nov-11 22:59N 36°27' W 008°02'12910.3
2017-Nov-11 10:29N 36°01' W 005°25'5 9.6
2017-Nov-11 10:00N 36°02' W 005°19'5 9.7
2017-Nov-11 09:30N 36°03' W 005°13'21210.6
2017-Nov-10 13:27N 37°14' W 001°04'612.2
2017-Nov-10 13:00N 37°17' W 000°59'612.2
2017-Nov-10 12:30N 37°21' W 000°53'612.1
2017-Nov-10 12:00N 37°25' W 000°47'611.9
2017-Nov-10 11:30N 37°29' W 000°42'611.9
2017-Nov-10 11:00N 37°33' W 000°36'611.5
2017-Nov-10 10:30N 37°37' W 000°31'611.4
2017-Nov-10 10:00N 37°42' W 000°27'  
Track history (hours):
 
Tides and Currents Weather Stations Pressure Air Temp Water Temp Dewpoint Dewpoint Depression Visibility Wind Speed Wind Dir Waves Ship Positions

Trito Navigator

Last reported at 2017-Nov-19 13:20 UTC. Time now 2017-Nov-22 13:08 UTC.
Position N 56°02' E 016°44'.

Length 117 m; draft 7.3 m.

Type: Cargo ship. MMSI: 245237000.

Date/timePositionNaut miles runAvg speedWind from/ knotsBaromVisibWave heightAir tempDewpointWater temp
2017-Nov-19 13:20N 56°02' E 016°44'411.6
2017-Nov-19 13:00N 56°01' E 016°38'611.8
2017-Nov-19 12:30N 55°58' E 016°29'611.8
2017-Nov-19 12:00N 55°55' E 016°19'611.8
2017-Nov-19 11:30N 55°53' E 016°10'611.9
2017-Nov-19 11:00N 55°50' E 016°00'612.0
2017-Nov-19 10:30N 55°46' E 015°51'611.9
2017-Nov-19 10:00N 55°43' E 015°42'612.1
2017-Nov-19 09:30N 55°40' E 015°33'612.2
2017-Nov-19 09:00N 55°37' E 015°24'612.2
2017-Nov-19 08:30N 55°34' E 015°14'612.2
2017-Nov-19 08:00N 55°31' E 015°05'612.2
2017-Nov-19 07:30N 55°28' E 014°55'612.2
2017-Nov-19 07:01N 55°26' E 014°46'612.0
2017-Nov-19 06:31N 55°22' E 014°37'611.9
2017-Nov-19 06:01N 55°18' E 014°30'611.5
2017-Nov-19 05:31N 55°13' E 014°24'611.3
2017-Nov-19 05:01N 55°11' E 014°15'612.0
2017-Nov-19 04:29N 55°10' E 014°03'812.0
2017-Nov-19 03:50N 55°11' E 013°50'2512.2
2017-Nov-19 01:49N 55°14' E 013°07'412.2
2017-Nov-19 01:30N 55°14' E 013°01'612.4
2017-Nov-19 01:00N 55°15' E 012°50'612.3
2017-Nov-19 00:31N 55°18' E 012°40'510.7
2017-Nov-19 00:01N 55°23' E 012°39'611.4
2017-Nov-18 23:30N 55°29' E 012°41'511.1
2017-Nov-18 23:01N 55°34' E 012°42'611.3
2017-Nov-18 22:31N 55°40' E 012°41'612.0
2017-Nov-18 22:01N 55°46' E 012°41'611.3
2017-Nov-18 21:30N 55°51' E 012°40'612.2
2017-Nov-18 21:01N 55°57' E 012°38'611.6
2017-Nov-18 20:31N 56°03' E 012°38'713.6
2017-Nov-18 20:00N 56°08' E 012°29'612.9
2017-Nov-18 19:30N 56°11' E 012°20'612.3
2017-Nov-18 19:00N 56°15' E 012°10'4512.4
2017-Nov-18 15:20N 56°58' E 011°44'412.4
2017-Nov-18 15:00N 57°02' E 011°42'612.7
2017-Nov-18 14:30N 57°08' E 011°38'712.7
2017-Nov-18 13:59N 57°14' E 011°33'612.6
2017-Nov-18 13:30N 57°19' E 011°29'612.4
2017-Nov-18 13:00N 57°25' E 011°24'612.1
2017-Nov-18 12:29N 57°30' E 011°17'612.8
2017-Nov-18 12:00N 57°32' E 011°06'613.0
2017-Nov-18 11:30N 57°35' E 010°55'612.8
2017-Nov-18 11:00N 57°38' E 010°45'511.0
2017-Nov-18 10:30N 57°42' E 010°38'0 0.1
2017-Nov-18 09:06N 57°42' E 010°38'0 0.1
2017-Nov-18 09:00N 57°42' E 010°38'0 0.0
2017-Nov-18 08:29N 57°42' E 010°38'0 0.2
2017-Nov-18 08:00N 57°42' E 010°37'4 7.6
2017-Nov-18 07:30N 57°44' E 010°44'4 9.0
2017-Nov-18 07:00N 57°47' E 010°37'713.7
2017-Nov-18 06:30N 57°46' E 010°24'34011.0
2017-Nov-16 23:38N 53°11' E 004°32'110.5
2017-Nov-16 23:30N 53°10' E 004°31'510.3
2017-Nov-16 23:00N 53°05' E 004°27'510.2
2017-Nov-16 22:30N 53°01' E 004°22'510.1
2017-Nov-16 22:00N 52°57' E 004°19'510.0
2017-Nov-16 21:30N 52°52' E 004°16'510.0
2017-Nov-16 20:59N 52°48' E 004°10'510.0
2017-Nov-16 20:26N 52°44' E 004°04'510.1
2017-Nov-16 19:59N 52°40' E 003°59'610.1
2017-Nov-16 19:24N 52°36' E 003°52'7612.1
2017-Nov-16 13:06N 51°40' E 002°29'113.5
2017-Nov-16 13:00N 51°39' E 002°27'713.9
2017-Nov-16 12:30N 51°34' E 002°20'713.7
2017-Nov-16 11:59N 51°28' E 002°13'713.9
2017-Nov-16 11:30N 51°22' E 002°09'713.8
2017-Nov-16 11:01N 51°16' E 002°05'714.0
2017-Nov-16 10:31N 51°11' E 001°56'714.5
2017-Nov-16 10:01N 51°08' E 001°46'714.5
2017-Nov-16 09:30N 51°03' E 001°38'714.1
2017-Nov-16 09:00N 50°57' E 001°30'713.3
2017-Nov-16 08:30N 50°51' E 001°26'612.5
2017-Nov-16 08:00N 50°45' E 001°23'5811.8
2017-Nov-16 03:06N 50°20' E 000°01'411.1
2017-Nov-16 02:43N 50°19' W 000°05'210.9
2017-Nov-16 02:30N 50°18' W 000°08'510.7
2017-Nov-16 02:00N 50°16' W 000°16'1710.1
2017-Nov-16 00:20N 50°12' W 000°42'4 9.8
2017-Nov-15 23:59N 50°11' W 000°47'5 9.8
2017-Nov-15 23:30N 50°10' W 000°54'5 9.9
2017-Nov-15 23:00N 50°08' W 001°01'510.3
2017-Nov-15 22:30N 50°07' W 001°09'510.9
2017-Nov-15 22:00N 50°06' W 001°17'611.5
2017-Nov-15 21:30N 50°04' W 001°26'612.2
2017-Nov-15 21:00N 50°02' W 001°35'713.0
2017-Nov-15 20:30N 50°01' W 001°45'713.6
2017-Nov-15 20:00N 49°59' W 001°55'714.0
2017-Nov-15 19:30N 49°57' W 002°05'5213.8
2017-Nov-15 15:45N 49°38' W 003°20'7712.7
2017-Nov-15 09:42N 48°60' W 005°03'211.3
2017-Nov-15 09:29N 48°59' W 005°06'611.3
2017-Nov-15 08:59N 48°56' W 005°14'610.9
2017-Nov-15 08:29N 48°53' W 005°21'610.9
2017-Nov-15 07:58N 48°50' W 005°28'510.7
2017-Nov-15 07:27N 48°47' W 005°35'610.5
2017-Nov-15 06:51N 48°41' W 005°40'1111.0
2017-Nov-15 05:51N 48°32' W 005°48'510.9
2017-Nov-15 05:25N 48°28' W 005°52'511.3
2017-Nov-15 04:56N 48°23' W 005°55'811.3
2017-Nov-15 04:16N 48°16' W 006°00'911.6
2017-Nov-15 03:27N 48°08' W 006°07'611.8
2017-Nov-15 02:56N 48°02' W 006°11'912.1
2017-Nov-15 02:11N 47°54' W 006°16'412.5
2017-Nov-15 01:52N 47°50' W 006°19'612.7
2017-Nov-15 01:25N 47°46' W 006°24'612.6
2017-Nov-15 00:56N 47°40' W 006°28'612.8
2017-Nov-15 00:30N 47°35' W 006°31'612.9
2017-Nov-15 00:00N 47°29' W 006°35'912.3
2017-Nov-14 23:17N 47°22' W 006°42'411.9
2017-Nov-14 22:56N 47°18' W 006°45'492 9.9
2017-Nov-12 20:59N 39°25' W 009°51'5 9.4
2017-Nov-12 20:30N 39°20' W 009°51'5 9.5
2017-Nov-12 20:01N 39°15' W 009°51'5 9.8
2017-Nov-12 19:30N 39°10' W 009°51'510.0
2017-Nov-12 19:00N 39°05' W 009°51'5 9.9
2017-Nov-12 18:30N 39°00' W 009°51'5 9.9
2017-Nov-12 18:00N 38°55' W 009°51'5 9.8
2017-Nov-12 17:30N 38°51' W 009°51'5 9.6
2017-Nov-12 17:00N 38°46' W 009°51'5 9.5
2017-Nov-12 16:30N 38°41' W 009°51'5 9.2
2017-Nov-12 16:00N 38°37' W 009°49'5 9.0
2017-Nov-12 15:30N 38°32' W 009°48'4 8.9
2017-Nov-12 15:00N 38°28' W 009°47'5 9.1
2017-Nov-12 14:30N 38°23' W 009°45'5 9.1
2017-Nov-12 14:00N 38°19' W 009°44'5 9.0
2017-Nov-12 13:30N 38°15' W 009°43'4 8.9
2017-Nov-12 13:00N 38°10' W 009°41'5 9.5
2017-Nov-12 12:30N 38°06' W 009°40'5 9.4
2017-Nov-12 12:00N 38°01' W 009°39'5 9.5
2017-Nov-12 11:29N 37°56' W 009°37'5 9.8
2017-Nov-12 11:00N 37°52' W 009°36'710.0
2017-Nov-12 10:18N 37°45' W 009°34'410.0
2017-Nov-12 09:56N 37°41' W 009°33'610.3
2017-Nov-12 09:19N 37°35' W 009°31'62 9.6
2017-Nov-12 02:50N 36°41' W 008°53'411.2
2017-Nov-12 02:29N 36°39' W 008°48'511.2
2017-Nov-12 02:00N 36°38' W 008°42'611.5
2017-Nov-12 01:30N 36°36' W 008°35'1011.4
2017-Nov-12 00:37N 36°33' W 008°23'511.4
2017-Nov-12 00:11N 36°31' W 008°17'711.5
2017-Nov-11 23:36N 36°29' W 008°10'110.7
2017-Nov-11 23:29N 36°29' W 008°08'611.3
2017-Nov-11 22:59N 36°27' W 008°02'12910.3
2017-Nov-11 10:29N 36°01' W 005°25'5 9.6
2017-Nov-11 10:00N 36°02' W 005°19'5 9.7
2017-Nov-11 09:30N 36°03' W 005°13'21210.6
2017-Nov-10 13:27N 37°14' W 001°04'612.2
2017-Nov-10 13:00N 37°17' W 000°59'612.2
2017-Nov-10 12:30N 37°21' W 000°53'612.1
2017-Nov-10 12:00N 37°25' W 000°47'611.9
2017-Nov-10 11:30N 37°29' W 000°42'611.9
2017-Nov-10 11:00N 37°33' W 000°36'611.5
2017-Nov-10 10:30N 37°37' W 000°31'611.4
2017-Nov-10 10:00N 37°42' W 000°27'  

Dump ship's entire track history